Time;durP1;ratioP1;P1;durP2;ratioP2;P2;SDS_P1;SDS_P2;PMS_P1;PMS_P2;Temp;Humidity;BMP_temperature;BMP_pressure;BME280_temperature;BME280_humidity;BME280_pressure;Samples;Min_cycle;Max_cycle;Signal;HPM_P1;HPM_P2
2021/06/19 00:01:28;;;;;;;14.87;13.70;;;25.90;94.50;;;;;;5090332;28;20489;-68
2021/06/19 00:03:54;;;;;;;15.50;13.53;;;25.80;94.50;;;;;;5091872;28;20446;-68
2021/06/19 00:06:21;;;;;;;13.97;13.07;;;25.90;94.00;;;;;;5091908;28;20978;-68
2021/06/19 00:08:48;;;;;;;13.93;12.80;;;25.90;93.60;;;;;;5091593;28;20454;-68
2021/06/19 00:11:15;;;;;;;13.90;12.80;;;25.80;93.00;;;;;;5092009;28;20453;-68
2021/06/19 00:13:43;;;;;;;16.03;14.47;;;25.80;92.80;;;;;;5091931;28;20589;-68
2021/06/19 00:16:09;;;;;;;13.33;12.37;;;25.80;92.90;;;;;;5091661;28;20453;-68
2021/06/19 00:18:36;;;;;;;14.07;12.73;;;25.80;93.00;;;;;;5091478;28;20442;-68
2021/06/19 00:21:03;;;;;;;13.60;12.63;;;25.70;93.10;;;;;;5091717;28;20481;-69
2021/06/19 00:23:30;;;;;;;15.13;13.93;;;25.70;93.20;;;;;;5091473;28;20804;-68
2021/06/19 00:25:57;;;;;;;15.17;13.80;;;25.70;93.30;;;;;;5091636;28;20443;-68
2021/06/19 00:28:24;;;;;;;13.80;12.90;;;25.70;93.40;;;;;;5091109;28;20450;-69
2021/06/19 00:30:52;;;;;;;16.43;13.40;;;25.70;93.30;;;;;;5091382;28;20964;-68
2021/06/19 00:33:19;;;;;;;17.87;14.23;;;25.60;95.90;;;;;;5091256;28;20447;-68
2021/06/19 00:35:45;;;;;;;14.97;13.67;;;25.50;96.90;;;;;;5091523;28;20950;-68
2021/06/19 00:38:12;;;;;;;14.70;13.70;;;25.30;97.90;;;;;;5091494;28;20469;-68
2021/06/19 00:40:39;;;;;;;15.10;13.80;;;25.20;98.20;;;;;;5091177;28;20462;-67
2021/06/19 00:43:05;;;;;;;15.87;14.30;;;25.10;98.30;;;;;;5091179;28;20485;-68
2021/06/19 00:45:34;;;;;;;18.43;14.27;;;25.10;98.10;;;;;;5091241;28;20796;-68
2021/06/19 00:48:07;;;;;;;15.90;14.40;;;25.10;98.00;;;;;;5091465;28;20449;-68
2021/06/19 00:50:34;;;;;;;16.60;14.90;;;25.00;97.50;;;;;;5091306;28;20450;-68
2021/06/19 00:53:00;;;;;;;16.03;14.53;;;25.10;96.90;;;;;;5089665;28;20450;-68
2021/06/19 00:55:27;;;;;;;15.80;14.10;;;25.20;96.40;;;;;;5091007;28;20469;-68
2021/06/19 00:57:54;;;;;;;16.23;14.13;;;25.30;96.30;;;;;;5090986;28;20967;-68
2021/06/19 01:00:22;;;;;;;15.30;14.00;;;25.40;96.40;;;;;;5090933;28;20869;-67
2021/06/19 01:02:49;;;;;;;15.43;13.97;;;25.40;96.50;;;;;;5090881;28;20489;-68
2021/06/19 01:05:17;;;;;;;14.40;13.40;;;25.50;96.20;;;;;;5091189;28;20454;-67
2021/06/19 01:07:43;;;;;;;15.70;14.20;;;25.50;96.00;;;;;;5091030;28;20807;-68
2021/06/19 01:10:12;;;;;;;17.13;14.07;;;25.60;95.80;;;;;;5090797;28;20449;-67
2021/06/19 01:12:41;;;;;;;13.40;12.50;;;25.60;96.30;;;;;;5091049;28;20443;-68
2021/06/19 01:15:09;;;;;;;14.83;13.30;;;25.50;96.10;;;;;;5090944;28;20446;-68
2021/06/19 01:17:36;;;;;;;14.80;13.70;;;25.40;96.30;;;;;;5090872;28;21187;-68
2021/06/19 01:20:05;;;;;;;13.57;12.47;;;25.40;96.50;;;;;;5090755;28;20486;-68
2021/06/19 01:22:34;;;;;;;16.90;15.53;;;25.30;96.80;;;;;;5090404;28;20512;-68
2021/06/19 01:25:04;;;;;;;14.73;13.37;;;25.10;97.60;;;;;;5090908;28;20442;-67
2021/06/19 01:27:31;;;;;;;15.27;14.00;;;25.00;98.00;;;;;;5090971;28;20458;-68
2021/06/19 01:29:59;;;;;;;14.53;13.30;;;24.80;98.00;;;;;;5090949;28;20454;-68
2021/06/19 01:32:28;;;;;;;16.00;14.27;;;24.70;98.80;;;;;;5090782;28;20445;-68
2021/06/19 01:34:54;;;;;;;15.97;14.20;;;24.70;99.80;;;;;;5090456;28;20795;-68
2021/06/19 01:37:21;;;;;;;15.83;14.23;;;24.70;98.90;;;;;;5090522;28;20940;-68
2021/06/19 01:39:48;;;;;;;16.03;14.87;;;24.80;99.40;;;;;;5090680;28;20473;-68
2021/06/19 01:42:16;;;;;;;19.07;15.17;;;24.80;98.90;;;;;;5093980;28;20492;-68
2021/06/19 01:44:43;;;;;;;15.30;14.10;;;24.70;99.20;;;;;;5094609;28;20456;-68
2021/06/19 01:47:09;;;;;;;14.60;13.33;;;24.60;99.40;;;;;;5094847;28;20450;-68
2021/06/19 01:49:37;;;;;;;14.77;13.57;;;24.60;99.60;;;;;;5094572;28;20494;-68
2021/06/19 01:52:05;;;;;;;14.97;13.73;;;24.70;98.60;;;;;;5094522;28;20516;-68
2021/06/19 01:54:38;;;;;;;15.40;13.13;;;24.70;99.40;;;;;;5094609;28;20524;-68
2021/06/19 01:57:05;;;;;;;15.20;12.97;;;24.70;98.90;;;;;;5094453;28;20500;-68
2021/06/19 01:59:33;;;;;;;14.00;13.20;;;24.80;98.80;;;;;;5094543;28;20438;-68
2021/06/19 02:02:00;;;;;;;14.03;13.13;;;24.80;98.20;;;;;;5094330;28;20486;-68
2021/06/19 02:04:28;;;;;;;15.67;14.63;;;24.80;98.30;;;;;;5094447;28;20450;-68
2021/06/19 02:06:55;;;;;;;16.83;15.23;;;24.90;98.60;;;;;;5094393;28;20446;-68
2021/06/19 02:09:21;;;;;;;16.50;15.10;;;24.90;99.60;;;;;;5094065;28;20445;-69
2021/06/19 02:11:48;;;;;;;17.07;15.60;;;24.80;99.70;;;;;;5094242;28;20783;-68
2021/06/19 02:14:15;;;;;;;16.13;14.70;;;24.80;99.60;;;;;;5094085;28;20438;-68
2021/06/19 02:16:44;;;;;;;15.40;14.20;;;24.70;99.40;;;;;;5094231;28;20478;-68
2021/06/19 02:19:12;;;;;;;15.67;14.27;;;24.70;99.60;;;;;;5093785;28;20489;-68
2021/06/19 02:21:38;;;;;;;15.63;14.50;;;24.60;99.50;;;;;;5093890;28;20512;-68
2021/06/19 02:24:06;;;;;;;15.93;14.70;;;24.50;99.90;;;;;;5093918;28;20792;-68
2021/06/19 02:26:33;;;;;;;19.93;14.40;;;24.20;99.90;;;;;;5094158;28;20458;-68
2021/06/19 02:28:59;;;;;;;16.83;15.70;;;24.10;99.90;;;;;;5093810;28;20449;-66
2021/06/19 02:31:26;;;;;;;16.60;15.30;;;24.10;99.90;;;;;;5093774;28;20477;-68
2021/06/19 02:33:54;;;;;;;16.90;15.70;;;24.00;99.90;;;;;;5093945;28;20442;-68
2021/06/19 02:36:21;;;;;;;16.63;15.43;;;23.90;99.90;;;;;;5093623;28;20477;-67
2021/06/19 02:38:48;;;;;;;16.00;14.80;;;23.70;99.90;;;;;;5093448;28;20454;-67
2021/06/19 02:41:15;;;;;;;16.83;15.70;;;23.70;99.90;;;;;;5093718;28;20470;-67
2021/06/19 02:43:42;;;;;;;16.00;14.70;;;23.70;99.90;;;;;;5093612;28;20489;-67
2021/06/19 02:46:09;;;;;;;15.40;13.97;;;23.70;99.90;;;;;;5093707;28;20447;-67
2021/06/19 02:48:36;;;;;;;18.07;15.70;;;23.70;99.90;;;;;;5093772;28;20442;-68
2021/06/19 02:51:04;;;;;;;14.53;13.30;;;23.60;99.90;;;;;;5093605;28;20449;-67
2021/06/19 02:53:31;;;;;;;17.80;14.30;;;23.50;99.90;;;;;;5092804;28;20442;-67
2021/06/19 02:55:58;;;;;;;16.60;15.30;;;23.50;99.90;;;;;;5093426;28;20446;-68
2021/06/19 02:58:25;;;;;;;16.53;15.40;;;23.50;99.90;;;;;;5093351;28;20461;-67
2021/06/19 03:00:51;;;;;;;16.27;15.07;;;23.50;99.90;;;;;;5093138;28;20457;-67
2021/06/19 03:03:18;;;;;;;16.10;15.00;;;23.40;99.90;;;;;;5093277;28;20482;-68
2021/06/19 03:05:45;;;;;;;16.60;15.13;;;23.30;99.90;;;;;;5093224;28;20461;-68
2021/06/19 03:08:13;;;;;;;17.10;15.43;;;23.20;99.90;;;;;;5093066;28;20966;-68
2021/06/19 03:10:41;;;;;;;16.47;15.47;;;23.10;99.90;;;;;;5093027;28;20450;-67
2021/06/19 03:13:07;;;;;;;16.13;14.83;;;23.10;99.90;;;;;;5092787;28;20869;-67
2021/06/19 03:15:34;;;;;;;17.40;15.73;;;23.00;99.90;;;;;;5092899;28;20450;-67
2021/06/19 03:18:01;;;;;;;16.10;15.10;;;23.00;99.90;;;;;;5093096;28;20438;-68
2021/06/19 03:20:28;;;;;;;16.60;15.30;;;23.00;99.90;;;;;;5092868;28;20477;-68
2021/06/19 03:22:58;;;;;;;18.57;16.97;;;23.10;99.90;;;;;;5092669;28;20485;-67
2021/06/19 03:25:27;;;;;;;19.90;15.17;;;23.10;99.90;;;;;;5093170;28;20462;-67
2021/06/19 03:27:55;;;;;;;17.70;16.30;;;22.90;99.90;;;;;;5092483;28;20693;-67
2021/06/19 03:30:22;;;;;;;19.50;17.70;;;22.90;99.90;;;;;;5092704;28;20703;-68
2021/06/19 03:32:49;;;;;;;17.73;16.03;;;22.90;99.90;;;;;;5092635;28;20449;-67
2021/06/19 03:35:16;;;;;;;18.07;16.80;;;23.00;99.90;;;;;;5093055;28;20822;-67
2021/06/19 03:37:44;;;;;;;17.90;16.60;;;22.90;99.90;;;;;;5092671;28;20944;-68
2021/06/19 03:40:12;;;;;;;20.60;19.13;;;23.00;99.90;;;;;;5092272;28;20474;-68
2021/06/19 03:42:41;;;;;;;17.87;16.77;;;22.90;99.90;;;;;;5092361;28;20488;-68
2021/06/19 03:45:10;;;;;;;17.57;15.97;;;22.80;99.90;;;;;;5092385;28;20447;-68
2021/06/19 03:47:38;;;;;;;27.10;18.40;;;22.80;99.90;;;;;;5092247;28;20661;-68
2021/06/19 03:50:05;;;;;;;18.93;17.20;;;22.80;99.90;;;;;;5092267;28;20801;-68
2021/06/19 03:52:32;;;;;;;18.13;16.30;;;22.70;99.90;;;;;;5092155;28;20928;-68
2021/06/19 03:54:59;;;;;;;18.63;17.10;;;22.60;99.90;;;;;;5092350;28;20446;-68
2021/06/19 03:57:27;;;;;;;17.93;16.63;;;22.60;99.90;;;;;;5092040;28;20902;-67
2021/06/19 03:59:55;;;;;;;17.37;15.60;;;22.60;99.90;;;;;;5092123;28;20458;-68
2021/06/19 04:02:23;;;;;;;18.40;16.73;;;22.70;99.90;;;;;;5092218;28;20482;-68
2021/06/19 04:04:50;;;;;;;18.67;16.97;;;22.70;99.90;;;;;;5090976;28;20822;-68
2021/06/19 04:07:17;;;;;;;20.10;18.00;;;22.70;99.90;;;;;;5091921;28;20450;-68
2021/06/19 04:09:45;;;;;;;18.30;16.80;;;22.80;99.90;;;;;;5092058;28;20454;-68
2021/06/19 04:12:12;;;;;;;18.03;16.67;;;22.80;99.90;;;;;;5092215;28;20447;-69
2021/06/19 04:14:39;;;;;;;19.00;17.20;;;22.80;99.90;;;;;;5091426;28;20451;-69
2021/06/19 04:17:08;;;;;;;18.87;17.37;;;22.80;99.90;;;;;;5091939;28;20449;-69
2021/06/19 04:19:34;;;;;;;18.17;16.77;;;22.80;99.90;;;;;;5091453;28;21105;-68
2021/06/19 04:22:02;;;;;;;19.13;17.83;;;22.90;99.90;;;;;;5091257;28;20457;-68
2021/06/19 04:24:29;;;;;;;18.17;16.87;;;22.90;99.90;;;;;;5091773;28;20951;-68
2021/06/19 04:26:56;;;;;;;17.60;16.20;;;23.00;99.90;;;;;;5091613;28;20932;-70
2021/06/19 04:29:22;;;;;;;18.60;16.90;;;23.00;99.90;;;;;;5091488;28;20450;-69
2021/06/19 04:31:49;;;;;;;18.90;17.60;;;22.90;99.90;;;;;;5091531;28;20503;-69
2021/06/19 04:34:17;;;;;;;19.27;17.37;;;22.90;99.90;;;;;;5091629;28;20449;-69
2021/06/19 04:36:44;;;;;;;19.37;17.50;;;23.00;99.90;;;;;;5091440;28;20446;-69
2021/06/19 04:39:11;;;;;;;18.87;17.27;;;23.10;99.90;;;;;;5091253;28;20442;-69
2021/06/19 04:41:47;;;;;;;17.60;16.07;;;23.20;99.90;;;;;;5091187;28;20481;-69
2021/06/19 04:44:27;;;;;;;18.57;16.90;;;23.10;99.90;;;;;;5099799;28;20500;-68
2021/06/19 04:46:54;;;;;;;18.77;17.03;;;23.20;99.90;;;;;;5101447;28;20443;-68
2021/06/19 04:49:22;;;;;;;17.90;16.77;;;23.20;99.90;;;;;;5099127;28;20948;-68
2021/06/19 04:51:49;;;;;;;18.70;17.03;;;23.30;99.90;;;;;;5099951;28;20449;-69
2021/06/19 04:54:16;;;;;;;19.50;17.67;;;23.50;99.90;;;;;;5101229;28;20437;-69
2021/06/19 04:56:43;;;;;;;18.03;16.50;;;23.90;99.90;;;;;;5099947;28;20458;-69
2021/06/19 04:59:10;;;;;;;18.03;16.53;;;24.40;99.90;;;;;;5099829;28;20437;-69
2021/06/19 05:01:37;;;;;;;19.10;17.40;;;25.00;99.90;;;;;;5100846;28;20441;-69
2021/06/19 05:04:04;;;;;;;19.97;18.13;;;25.70;99.90;;;;;;5099290;28;20485;-68
2021/06/19 05:06:34;;;;;;;18.40;16.57;;;26.10;99.90;;;;;;5099829;28;20438;-69
2021/06/19 05:09:01;;;;;;;18.63;16.90;;;26.20;99.90;;;;;;5099093;28;20442;-69
2021/06/19 05:11:27;;;;;;;18.83;17.30;;;26.40;99.90;;;;;;5099988;28;20538;-69
2021/06/19 05:13:54;;;;;;;18.40;16.90;;;26.40;99.90;;;;;;5100438;28;20446;-68
2021/06/19 05:16:21;;;;;;;18.13;16.97;;;26.40;99.90;;;;;;5098637;28;21018;-70
2021/06/19 05:18:47;;;;;;;18.60;17.10;;;26.60;99.90;;;;;;5099682;28;20449;-69
2021/06/19 05:21:14;;;;;;;17.97;16.70;;;26.60;99.90;;;;;;5100669;28;20442;-69
2021/06/19 05:23:42;;;;;;;20.10;18.20;;;26.50;99.90;;;;;;5098762;28;20855;-68
2021/06/19 05:26:09;;;;;;;17.27;16.17;;;26.60;99.90;;;;;;5099658;28;20445;-70
2021/06/19 05:28:35;;;;;;;18.23;16.80;;;26.90;99.90;;;;;;5100813;28;20453;-68
2021/06/19 05:31:03;;;;;;;18.00;16.87;;;27.10;99.90;;;;;;5098867;28;20924;-69
2021/06/19 05:33:30;;;;;;;16.53;15.23;;;27.40;99.90;;;;;;5099841;28;20441;-69
2021/06/19 05:35:57;;;;;;;17.83;16.40;;;27.80;99.90;;;;;;5100496;28;20449;-69
2021/06/19 05:38:24;;;;;;;18.63;17.10;;;28.30;99.90;;;;;;5098754;28;20931;-69
2021/06/19 05:40:52;;;;;;;17.87;16.70;;;28.40;99.90;;;;;;5099279;28;21015;-69
2021/06/19 05:43:18;;;;;;;18.10;16.77;;;28.40;99.90;;;;;;5100795;28;20485;-69
2021/06/19 05:45:45;;;;;;;19.57;17.90;;;28.60;99.60;;;;;;5099294;28;20943;-69
2021/06/19 05:48:12;;;;;;;18.40;17.27;;;28.80;98.90;;;;;;5099135;28;20462;-69
2021/06/19 05:50:38;;;;;;;18.07;16.97;;;28.90;98.80;;;;;;5100282;28;20437;-69
2021/06/19 05:53:05;;;;;;;19.60;18.10;;;28.90;98.90;;;;;;5098928;28;20461;-69
2021/06/19 05:55:32;;;;;;;19.80;17.43;;;29.10;98.70;;;;;;5099291;28;20437;-69
2021/06/19 05:58:00;;;;;;;17.50;16.30;;;29.10;97.80;;;;;;5100423;28;20806;-69
2021/06/19 06:00:28;;;;;;;17.67;16.40;;;29.00;97.90;;;;;;5095365;28;20450;-68
2021/06/19 06:02:55;;;;;;;18.47;17.27;;;29.00;98.20;;;;;;5090377;28;20478;-69
2021/06/19 06:05:21;;;;;;;19.60;17.60;;;29.40;97.70;;;;;;5090612;28;20920;-68
2021/06/19 06:07:48;;;;;;;20.17;18.20;;;29.60;97.20;;;;;;5090453;28;20484;-68
2021/06/19 06:10:15;;;;;;;18.27;17.17;;;29.40;96.90;;;;;;5090707;28;20461;-68
2021/06/19 06:12:42;;;;;;;19.93;18.20;;;29.20;97.30;;;;;;5090554;28;20445;-68
2021/06/19 06:15:11;;;;;;;20.13;18.87;;;29.10;97.40;;;;;;5090191;28;20465;-69
2021/06/19 06:17:37;;;;;;;18.37;16.80;;;29.40;97.50;;;;;;5090253;28;20818;-70
2021/06/19 06:20:06;;;;;;;20.70;18.67;;;30.00;96.30;;;;;;5090042;28;20901;-69
2021/06/19 06:22:32;;;;;;;20.03;18.20;;;30.50;95.70;;;;;;5090304;28;20450;-70
2021/06/19 06:24:59;;;;;;;19.27;18.03;;;30.60;95.00;;;;;;5090187;28;20481;-69
2021/06/19 06:27:26;;;;;;;19.87;18.37;;;30.90;94.80;;;;;;5091677;28;20450;-69
2021/06/19 06:29:52;;;;;;;20.47;18.97;;;31.40;93.70;;;;;;5093840;28;20778;-69
2021/06/19 06:32:20;;;;;;;18.60;17.20;;;32.00;92.80;;;;;;5093792;28;20886;-70
2021/06/19 06:34:47;;;;;;;20.03;18.30;;;32.70;91.00;;;;;;5093754;28;20495;-70
2021/06/19 06:37:14;;;;;;;18.13;16.83;;;32.90;90.50;;;;;;5093301;28;20454;-69
2021/06/19 06:39:40;;;;;;;20.70;18.97;;;32.90;90.70;;;;;;5093407;28;20457;-69
2021/06/19 06:42:08;;;;;;;19.13;17.80;;;33.20;90.20;;;;;;5093540;28;20532;-69
2021/06/19 06:44:35;;;;;;;19.40;18.07;;;33.80;88.00;;;;;;5093391;28;20489;-70
2021/06/19 06:47:03;;;;;;;19.60;18.30;;;34.10;85.70;;;;;;5093512;28;20443;-70
2021/06/19 06:49:31;;;;;;;19.33;18.33;;;34.00;86.10;;;;;;5093499;28;20454;-70
2021/06/19 06:51:58;;;;;;;19.60;17.90;;;34.70;83.60;;;;;;5093558;28;20453;-70
2021/06/19 06:54:25;;;;;;;20.30;18.67;;;34.80;83.10;;;;;;5092966;28;20442;-71
2021/06/19 06:56:51;;;;;;;20.07;18.63;;;34.90;82.50;;;;;;5093187;28;20472;-70
2021/06/19 06:59:18;;;;;;;19.87;18.43;;;34.80;81.40;;;;;;5093347;28;20453;-70
2021/06/19 07:01:45;;;;;;;19.13;17.63;;;35.00;80.60;;;;;;5093061;28;20971;-70
2021/06/19 07:04:11;;;;;;;19.50;18.30;;;35.00;80.10;;;;;;5093219;28;20481;-71
2021/06/19 07:06:39;;;;;;;19.90;18.40;;;35.40;78.50;;;;;;5093193;28;20461;-69
2021/06/19 07:09:06;;;;;;;21.30;19.97;;;36.10;75.90;;;;;;5092958;28;20457;-70
2021/06/19 07:11:33;;;;;;;19.73;18.43;;;36.00;75.20;;;;;;5093124;28;20959;-70
2021/06/19 07:13:59;;;;;;;19.00;17.60;;;36.20;75.00;;;;;;5092893;28;20446;-71
2021/06/19 07:16:26;;;;;;;20.20;18.40;;;36.20;74.50;;;;;;5092900;28;20462;-70
2021/06/19 07:18:53;;;;;;;19.43;17.93;;;36.00;74.60;;;;;;5092651;28;20450;-70
2021/06/19 07:21:19;;;;;;;19.40;18.07;;;35.10;75.00;;;;;;5092689;28;20450;-70
2021/06/19 07:23:47;;;;;;;20.43;18.93;;;35.20;74.80;;;;;;5092714;28;20497;-70
2021/06/19 07:26:14;;;;;;;19.33;18.13;;;35.40;74.90;;;;;;5102265;28;20465;-70
2021/06/19 07:28:43;;;;;;;19.00;17.63;;;35.60;74.80;;;;;;5113060;28;20445;-70
2021/06/19 07:31:10;;;;;;;18.60;17.40;;;35.80;73.20;;;;;;5112893;28;20966;-70
2021/06/19 07:33:37;;;;;;;19.50;18.20;;;35.20;74.60;;;;;;5112929;28;20472;-72
2021/06/19 07:36:04;;;;;;;19.80;18.50;;;35.00;75.30;;;;;;5113065;28;20449;-71
2021/06/19 07:38:32;;;;;;;18.93;17.53;;;35.40;73.90;;;;;;5113069;28;20506;-71
2021/06/19 07:41:01;;;;;;;18.77;17.30;;;35.80;72.50;;;;;;5112983;28;20461;-71
2021/06/19 07:43:27;;;;;;;19.97;18.17;;;36.20;71.40;;;;;;5112747;28;20477;-71
2021/06/19 07:45:56;;;;;;;19.47;18.27;;;36.20;70.30;;;;;;5112752;28;20468;-71
2021/06/19 07:48:23;;;;;;;19.27;17.90;;;36.10;70.90;;;;;;5112430;28;20446;-71
2021/06/19 07:50:50;;;;;;;19.97;18.27;;;35.60;71.60;;;;;;5112652;28;20454;-70
2021/06/19 07:53:17;;;;;;;19.90;18.80;;;35.30;72.50;;;;;;5112839;28;20460;-71
2021/06/19 07:55:43;;;;;;;19.90;18.63;;;35.60;71.90;;;;;;5112671;28;20441;-71
2021/06/19 07:58:11;;;;;;;20.50;18.90;;;35.70;71.60;;;;;;5112501;28;20946;-72
2021/06/19 08:00:38;;;;;;;19.63;18.20;;;35.70;70.80;;;;;;5097462;28;20873;-71
2021/06/19 08:03:05;;;;;;;18.73;17.70;;;36.30;70.20;;;;;;5110327;28;20441;-71
2021/06/19 08:05:32;;;;;;;18.93;17.93;;;36.50;69.70;;;;;;5112225;28;20452;-71
2021/06/19 08:07:58;;;;;;;20.70;19.30;;;36.90;69.50;;;;;;5112277;28;20970;-71
2021/06/19 08:10:26;;;;;;;19.93;18.47;;;37.60;67.60;;;;;;5107837;28;20445;-71
2021/06/19 08:12:53;;;;;;;19.63;17.93;;;38.20;65.30;;;;;;5110086;28;20453;-71
2021/06/19 08:15:22;;;;;;;20.13;18.70;;;38.40;65.10;;;;;;5110805;28;20452;-71
2021/06/19 08:17:49;;;;;;;20.43;19.13;;;38.30;63.60;;;;;;5111405;28;20465;-71
2021/06/19 08:20:16;;;;;;;21.07;19.53;;;38.60;63.50;;;;;;5111799;28;20847;-71
2021/06/19 08:22:43;;;;;;;23.00;19.87;;;38.60;62.20;;;;;;5111417;28;20441;-71
2021/06/19 08:25:10;;;;;;;21.63;20.00;;;38.50;61.80;;;;;;5111822;28;20481;-71
2021/06/19 08:27:37;;;;;;;20.30;19.23;;;37.80;62.80;;;;;;5111160;28;20542;-71
2021/06/19 08:30:05;;;;;;;20.33;19.10;;;37.80;64.10;;;;;;5111212;28;20456;-71
2021/06/19 08:32:33;;;;;;;20.17;18.90;;;38.30;62.80;;;;;;5111384;28;20452;-71
2021/06/19 08:35:00;;;;;;;20.40;19.30;;;38.70;61.80;;;;;;5111597;28;20450;-71
2021/06/19 08:37:26;;;;;;;22.27;20.87;;;38.90;60.90;;;;;;5111400;28;20742;-71
2021/06/19 08:39:57;;;;;;;20.73;19.50;;;39.20;59.90;;;;;;5111412;28;20465;-71
2021/06/19 08:42:23;;;;;;;20.90;19.40;;;38.60;61.20;;;;;;5111494;28;20456;-71
2021/06/19 08:44:51;;;;;;;20.60;19.00;;;38.50;61.00;;;;;;5111486;28;20470;-71
2021/06/19 08:47:18;;;;;;;20.03;18.20;;;38.50;61.60;;;;;;5110566;28;20536;-70
2021/06/19 08:49:47;;;;;;;20.80;19.53;;;38.80;60.50;;;;;;5110929;28;20441;-72
2021/06/19 08:52:16;;;;;;;20.37;18.97;;;39.10;59.50;;;;;;5111389;28;20448;-71
2021/06/19 08:54:42;;;;;;;22.63;21.10;;;39.00;60.60;;;;;;5111446;28;20451;-70
2021/06/19 08:57:11;;;;;;;23.40;21.67;;;38.80;59.90;;;;;;5111150;28;20449;-71
2021/06/19 08:59:38;;;;;;;22.07;20.67;;;38.40;61.80;;;;;;5111051;28;20478;-71
2021/06/19 09:02:06;;;;;;;21.00;19.73;;;38.70;61.00;;;;;;5108964;28;20448;-71
2021/06/19 09:04:52;;;;;;;22.57;20.87;;;39.00;60.80;;;;;;5110857;28;20570;-71
2021/06/19 09:07:35;;;;;;;22.67;21.07;;;39.00;59.90;;;;;;5111007;28;20422;-70
2021/06/19 09:10:16;;;;;;;21.27;19.50;;;38.90;61.40;;;;;;5111068;28;20824;-71
2021/06/19 09:12:55;;;;;;;20.77;19.37;;;39.50;59.40;;;;;;5110972;28;20433;-71
2021/06/19 09:15:22;;;;;;;21.27;19.87;;;38.60;61.50;;;;;;5111062;28;20514;-71
2021/06/19 09:18:05;;;;;;;22.27;20.57;;;38.00;62.40;;;;;;5110851;28;20453;-71
2021/06/19 09:20:35;;;;;;;23.33;21.63;;;38.60;62.20;;;;;;5110721;28;20488;-71
2021/06/19 09:23:06;;;;;;;21.97;20.77;;;39.20;61.00;;;;;;5110667;28;20450;-71
2021/06/19 09:25:33;;;;;;;22.27;20.87;;;39.20;61.20;;;;;;5110512;28;20473;-72
2021/06/19 09:28:00;;;;;;;22.10;20.70;;;39.70;59.20;;;;;;5110467;28;20864;-72
2021/06/19 09:30:28;;;;;;;22.70;20.83;;;40.20;58.30;;;;;;5110652;28;20445;-71
2021/06/19 09:32:56;;;;;;;23.57;22.17;;;40.20;57.50;;;;;;5110223;28;20544;-71
2021/06/19 09:35:25;;;;;;;22.47;21.10;;;40.00;57.60;;;;;;5108604;28;20437;-71
2021/06/19 09:37:55;;;;;;;23.13;21.50;;;38.60;60.00;;;;;;5110307;28;20531;-71
2021/06/19 09:40:27;;;;;;;23.47;21.97;;;38.50;60.70;;;;;;5110229;28;20473;-71
2021/06/19 09:43:09;;;;;;;21.37;20.03;;;38.60;60.50;;;;;;5110294;28;20445;-71
2021/06/19 09:45:37;;;;;;;22.50;21.10;;;39.60;58.60;;;;;;5109731;28;20485;-71
2021/06/19 09:48:04;;;;;;;22.50;20.90;;;40.10;57.60;;;;;;5110256;28;20460;-71
2021/06/19 09:50:31;;;;;;;22.53;21.10;;;40.70;56.90;;;;;;5110084;28;20445;-71
2021/06/19 09:53:12;;;;;;;21.53;20.43;;;41.20;55.90;;;;;;5110413;28;20472;-72
2021/06/19 09:55:41;;;;;;;23.63;22.17;;;40.80;56.00;;;;;;5110181;28;20448;-71
2021/06/19 09:58:08;;;;;;;24.33;23.00;;;39.90;57.50;;;;;;5110140;28;20453;-71
2021/06/19 10:00:39;;;;;;;22.60;21.13;;;38.90;59.70;;;;;;5110108;28;20461;-71
2021/06/19 10:03:06;;;;;;;23.23;21.93;;;39.30;58.50;;;;;;5113026;28;20756;-71
2021/06/19 10:05:32;;;;;;;22.07;20.93;;;39.10;59.20;;;;;;5113895;28;20480;-71
2021/06/19 10:08:00;;;;;;;21.57;20.17;;;38.60;59.70;;;;;;5104136;27;20458;-71
2021/06/19 10:10:28;;;;;;;23.87;22.27;;;37.80;61.90;;;;;;5101619;28;20445;-71
2021/06/19 10:12:55;;;;;;;22.93;21.13;;;37.60;62.50;;;;;;5093490;28;20462;-71
2021/06/19 10:15:22;;;;;;;21.90;20.70;;;38.00;61.50;;;;;;5093415;28;20524;-73
2021/06/19 10:17:49;;;;;;;22.50;21.03;;;39.30;59.70;;;;;;5093240;28;20453;-72
2021/06/19 10:20:18;;;;;;;23.00;21.50;;;40.30;56.80;;;;;;5093283;28;20543;-72
2021/06/19 10:22:45;;;;;;;21.10;19.70;;;39.80;57.40;;;;;;5096511;28;20445;-72
2021/06/19 10:25:15;;;;;;;22.33;21.00;;;39.00;59.40;;;;;;5113288;28;20489;-72
2021/06/19 10:27:47;;;;;;;22.67;20.83;;;38.50;61.10;;;;;;5113814;28;20449;-72
2021/06/19 10:30:16;;;;;;;22.80;21.10;;;38.40;60.10;;;;;;5114015;28;20452;-72
2021/06/19 10:32:44;;;;;;;23.23;21.93;;;38.50;60.20;;;;;;5113757;28;20467;-72
2021/06/19 10:35:15;;;;;;;21.50;19.90;;;38.00;60.50;;;;;;5112354;28;21932;-72
2021/06/19 10:37:42;;;;;;;22.47;20.57;;;37.90;60.00;;;;;;5113559;28;20517;-72
2021/06/19 10:40:18;;;;;;;21.60;20.50;;;38.40;59.70;;;;;;5113614;28;20468;-72
2021/06/19 10:42:46;;;;;;;20.40;18.97;;;38.60;60.10;;;;;;5113854;28;20453;-72
2021/06/19 10:45:20;;;;;;;20.57;19.00;;;38.80;59.70;;;;;;5113597;28;20507;-72
2021/06/19 10:48:01;;;;;;;21.27;19.50;;;38.80;57.90;;;;;;5112833;28;20537;-72
2021/06/19 10:50:29;;;;;;;20.90;19.80;;;38.10;58.70;;;;;;5093119;28;20446;-71
2021/06/19 10:53:07;;;;;;;20.70;19.40;;;37.10;60.10;;;;;;5093132;28;20454;-71
2021/06/19 10:55:35;;;;;;;22.47;20.53;;;37.00;59.80;;;;;;5092859;28;20784;-71
2021/06/19 10:58:17;;;;;;;21.40;19.90;;;37.20;60.00;;;;;;5092844;28;20460;-72
2021/06/19 11:00:46;;;;;;;20.30;19.00;;;37.30;59.50;;;;;;5092916;28;20463;-72
2021/06/19 11:03:13;;;;;;;20.70;19.50;;;37.60;60.60;;;;;;5092920;28;20449;-72
2021/06/19 11:05:59;;;;;;;21.20;20.13;;;37.40;59.30;;;;;;5092531;28;20481;-72
2021/06/19 11:08:27;;;;;;;22.37;20.83;;;37.10;62.70;;;;;;5092810;28;20802;-72
2021/06/19 11:11:03;;;;;;;22.60;21.00;;;37.30;61.90;;;;;;5092521;28;20450;-72
2021/06/19 11:13:52;;;;;;;22.47;20.80;;;37.10;60.80;;;;;;5090639;28;20449;-72
2021/06/19 11:16:48;;;;;;;19.13;17.77;;;36.50;62.40;;;;;;5084874;28;20446;-72
2021/06/19 11:19:44;;;;;;;20.90;19.67;;;35.70;61.80;;;;;;5092477;28;20478;-72
2021/06/19 11:22:39;;;;;;;21.03;19.63;;;35.80;61.50;;;;;;5110501;28;20453;-72
2021/06/19 11:25:24;;;;;;;21.03;19.73;;;36.00;63.30;;;;;;5053573;28;20582;-71
2021/06/19 11:27:56;;;;;;;20.87;19.67;;;35.20;64.90;;;;;;5094098;28;20978;-72
2021/06/19 11:30:58;;;;;;;21.10;19.23;;;35.20;66.20;;;;;;5112770;28;21172;-72
2021/06/19 11:33:44;;;;;;;20.57;19.07;;;36.40;64.90;;;;;;5112648;28;20536;-72
2021/06/19 11:36:31;;;;;;;21.57;20.13;;;37.30;61.80;;;;;;5112476;28;20449;-72
2021/06/19 11:39:03;;;;;;;20.17;19.03;;;37.60;61.50;;;;;;5112786;28;20498;-72
2021/06/19 11:41:35;;;;;;;21.70;20.33;;;37.80;61.70;;;;;;5112543;28;20556;-72
2021/06/19 11:44:09;;;;;;;21.43;20.10;;;37.40;61.00;;;;;;5112457;28;20440;-72
2021/06/19 11:46:37;;;;;;;20.33;18.60;;;38.20;57.60;;;;;;5111957;28;20481;-72
2021/06/19 11:49:08;;;;;;;20.17;18.90;;;38.70;56.80;;;;;;5112128;28;20479;-72
2021/06/19 11:51:36;;;;;;;19.50;18.23;;;39.20;54.90;;;;;;5112080;28;20457;-72
2021/06/19 11:54:03;;;;;;;22.20;20.23;;;38.80;54.60;;;;;;5112174;28;20880;-72
2021/06/19 11:56:31;;;;;;;19.27;18.17;;;38.10;55.60;;;;;;5112135;28;20479;-72
2021/06/19 11:59:00;;;;;;;20.20;19.00;;;38.40;55.40;;;;;;5112201;28;20449;-72
2021/06/19 12:01:32;;;;;;;20.73;19.07;;;38.00;54.00;;;;;;5111978;28;20453;-72
2021/06/19 12:04:03;;;;;;;20.40;18.27;;;38.00;54.00;;;;;;5112362;28;20453;-72
2021/06/19 12:06:31;;;;;;;21.77;20.30;;;37.90;55.50;;;;;;5111913;28;20489;-72
2021/06/19 12:08:58;;;;;;;19.77;18.43;;;38.50;55.10;;;;;;5111945;28;20457;-71
2021/06/19 12:11:27;;;;;;;18.03;16.80;;;39.70;53.10;;;;;;5111921;28;20441;-72
2021/06/19 12:13:54;;;;;;;19.73;18.73;;;40.30;49.50;;;;;;5111747;28;20481;-72
2021/06/19 12:16:28;;;;;;;18.50;17.40;;;40.60;48.60;;;;;;5111441;28;20473;-72
2021/06/19 12:19:01;;;;;;;20.43;19.10;;;40.70;47.30;;;;;;5111460;28;20452;-72
2021/06/19 12:21:33;;;;;;;18.77;17.77;;;39.80;46.70;;;;;;5104452;28;20450;-72
2021/06/19 12:24:01;;;;;;;19.10;17.80;;;39.50;46.90;;;;;;5089310;28;20812;-72
2021/06/19 12:26:28;;;;;;;16.43;15.43;;;39.10;47.50;;;;;;5090692;28;20862;-72
2021/06/19 12:28:55;;;;;;;19.03;17.80;;;39.60;46.70;;;;;;5091032;28;20476;-72
2021/06/19 12:31:26;;;;;;;19.07;18.13;;;39.10;46.70;;;;;;5091106;28;20454;-72
2021/06/19 12:33:58;;;;;;;19.80;18.43;;;38.90;47.30;;;;;;5091230;28;20614;-72
2021/06/19 12:36:27;;;;;;;18.50;17.50;;;38.70;47.20;;;;;;5090848;28;20936;-72